Stations météo

réclame
Mon MeteoGroup
Idre, Suède (2307): Température de l'air & dewpoint: 09.12.2017 18:00:00 - 15.12.2017 18:00:00 (CET)Idre, Suède (2307): Vitesse du vent & gusts: 09.12.2017 18:00:00 - 15.12.2017 18:00:00 (CET)Idre, Suède (2307): Direction du vent: 09.12.2017 18:00:00 - 15.12.2017 18:00:00 (CET)
Date & Time tt [°C] td [°C] ff [km/h] ff [knt] fx [km/h] fx [knt] dd
15.12.2017 18:00:00 - - - - - - -
15.12.2017 17:00:00 -7,3 -8,0 14 7 26 14 NNW
15.12.2017 16:00:00 -7,2 -7,9 20 11 34 18 N
15.12.2017 15:00:00 -7,5 -8,1 20 11 29 15 N
15.12.2017 14:00:00 -7,4 -8,1 18 10 31 17 N
15.12.2017 13:00:00 - - - - - - -
15.12.2017 12:00:00 -6,6 -7,3 13 7 26 14 NNE
15.12.2017 11:00:00 -6,9 -7,6 21 11 27 15 N
15.12.2017 10:00:00 -6,3 -6,8 20 11 27 15 N
15.12.2017 09:00:00 -6,2 -6,7 16 9 25 13 NNW
15.12.2017 08:00:00 -6,1 -6,7 15 8 38 21 N
15.12.2017 07:00:00 -5,7 -6,2 22 12 34 19 NNE
15.12.2017 06:00:00 -5,9 -6,5 19 11 30 16 NNW
15.12.2017 05:00:00 -5,8 -6,4 21 12 30 16 N
15.12.2017 04:00:00 -5,8 -6,3 15 8 28 15 NNW
15.12.2017 03:00:00 -5,7 -6,2 18 10 28 15 N
15.12.2017 02:00:00 -5,6 -6,1 16 9 29 16 N
15.12.2017 01:00:00 -5,4 -5,9 21 11 31 17 NE
15.12.2017 00:00:00 -5,3 -5,8 11 6 24 13 N
14.12.2017 23:00:00 -5,3 -5,7 12 7 23 13 N
14.12.2017 22:00:00 -5,2 -5,6 8 4 16 9 NNE
14.12.2017 21:00:00 -5,1 -5,5 12 6 21 11 NE
14.12.2017 20:00:00 -5,1 -5,5 14 7 20 11 NE
14.12.2017 19:00:00 -4,6 -5,0 11 6 19 10 ENE
14.12.2017 18:00:00 -4,4 -4,8 12 7 17 9 ENE
14.12.2017 17:00:00 -4,2 -4,5 12 6 16 9 ENE
14.12.2017 16:00:00 -4,2 -4,5 10 5 14 8 NE
14.12.2017 15:00:00 -4,3 -4,7 8 5 13 7 NE
14.12.2017 14:00:00 -4,3 -4,7 7 4 13 7 NE
14.12.2017 13:00:00 -4,3 -4,7 5 3 6 3 NE
14.12.2017 12:00:00 -4,2 -4,6 4 2 8 4 ESE
14.12.2017 11:00:00 -4,2 -4,5 6 3 19 10 SSE
14.12.2017 10:00:00 -4,3 -4,6 13 7 19 11 SSE
14.12.2017 09:00:00 -4,3 -4,7 16 9 23 12 SSE
14.12.2017 08:00:00 -4,3 -4,7 12 7 19 11 SSE
14.12.2017 07:00:00 -4,6 -5,0 13 7 22 12 SE
14.12.2017 06:00:00 -4,7 -5,1 13 7 29 16 S
14.12.2017 05:00:00 -4,5 -4,9 16 9 29 16 S
14.12.2017 04:00:00 -4,5 -4,9 15 8 27 15 SSE
14.12.2017 03:00:00 -4,7 -5,1 22 12 29 15 S
14.12.2017 02:00:00 -4,7 -5,1 22 12 37 20 S
14.12.2017 01:00:00 -5,1 -5,5 23 13 34 18 S
14.12.2017 00:00:00 -5,2 -5,6 26 14 35 19 S
13.12.2017 23:00:00 -5,9 -6,4 23 12 35 19 SSE
13.12.2017 22:00:00 -6,2 -6,7 25 14 37 20 SSE
13.12.2017 21:00:00 -7,0 -7,6 26 14 42 23 SSE
13.12.2017 20:00:00 -8,5 -9,3 25 13 39 21 SSE
13.12.2017 19:00:00 -10,6 -11,5 21 11 34 18 SE
13.12.2017 18:00:00 -8,9 -9,6 20 11 28 15 SSE
13.12.2017 17:00:00 -8,8 -10,0 17 9 26 14 S
13.12.2017 16:00:00 -10,0 -11,6 21 11 36 20 SSW
13.12.2017 15:00:00 -10,7 -12,9 18 10 27 15 SW
13.12.2017 14:00:00 -10,9 -13,3 17 9 27 15 SW
13.12.2017 13:00:00 -10,7 -13,0 19 10 38 21 SSW
13.12.2017 12:00:00 -10,4 -12,3 19 11 29 16 SW
13.12.2017 11:00:00 -10,8 -12,3 18 10 30 16 SW
13.12.2017 10:00:00 -11,1 -12,5 16 9 27 14 WSW
13.12.2017 09:00:00 -11,2 -12,3 21 11 27 15 WSW
13.12.2017 08:00:00 -11,9 -13,0 16 9 19 10 W
13.12.2017 07:00:00 -12,1 -13,3 15 8 18 10 WSW
13.12.2017 06:00:00 -12,3 -13,6 16 9 23 12 WSW
13.12.2017 05:00:00 -12,0 -13,1 15 8 20 11 W
13.12.2017 04:00:00 -11,3 -12,4 17 9 26 14 W
13.12.2017 03:00:00 -11,2 -12,2 21 11 26 14 W
13.12.2017 02:00:00 -10,7 -11,8 16 9 27 15 W
13.12.2017 01:00:00 -10,6 -11,7 20 11 26 14 W
13.12.2017 00:00:00 - - - - - - -
12.12.2017 23:00:00 - - - - - - -
12.12.2017 22:00:00 - - - - - - -
12.12.2017 21:00:00 - - - - - - -
12.12.2017 20:00:00 - - - - - - -
12.12.2017 19:00:00 - - - - - - -
12.12.2017 18:00:00 - - - - - - -
12.12.2017 17:00:00 - - - - - - -
12.12.2017 16:00:00 - - - - - - -
12.12.2017 15:00:00 - - - - - - -
12.12.2017 14:00:00 - - - - - - -
12.12.2017 13:00:00 -10,2 -11,2 22 12 31 17 NNW
12.12.2017 12:00:00 -9,6 -10,5 22 12 31 17 NNW
12.12.2017 11:00:00 - - - - - - -
12.12.2017 10:00:00 - - - - - - -
12.12.2017 09:00:00 - - - - - - -
12.12.2017 08:00:00 - - - - - - -
12.12.2017 07:00:00 - - - - - - -
12.12.2017 06:00:00 - - - - - - -
12.12.2017 05:00:00 -8,0 -8,8 9 5 22 12 NE
12.12.2017 04:00:00 - - - - - - -
12.12.2017 03:00:00 - - - - - - -
12.12.2017 02:00:00 - - - - - - -
12.12.2017 01:00:00 -7,9 -8,6 7 4 13 7 E
12.12.2017 00:00:00 -8,3 -9,1 7 4 14 8 E
11.12.2017 23:00:00 -8,0 -8,8 7 4 17 9 E
11.12.2017 22:00:00 -7,7 -8,5 11 6 18 10 SSE
11.12.2017 21:00:00 -7,6 -8,2 12 7 21 11 SSE
11.12.2017 20:00:00 -7,6 -8,2 16 9 25 14 SSE
11.12.2017 19:00:00 -7,5 -8,2 16 9 23 13 SE
11.12.2017 18:00:00 -7,3 -8,0 15 8 24 13 SE
11.12.2017 17:00:00 -7,2 -7,9 15 8 25 13 SSE
11.12.2017 16:00:00 -7,0 -7,7 17 9 - - SSE
11.12.2017 15:00:00 -7,0 -7,7 23 13 34 18 SSE
11.12.2017 14:00:00 -7,0 -7,7 19 10 27 15 SSE
11.12.2017 13:00:00 -7,2 -7,9 16 9 32 17 SE
11.12.2017 12:00:00 -7,3 -8,0 - - - - -
11.12.2017 11:00:00 -7,3 -8,0 - - - - -
11.12.2017 10:00:00 -7,3 -8,0 - - - - -
11.12.2017 09:00:00 -7,0 -7,7 - - - - -
11.12.2017 08:00:00 -6,9 -7,6 - - - - -
11.12.2017 07:00:00 -7,4 -8,1 - - - - -
11.12.2017 06:00:00 -7,4 -8,1 - - - - -
11.12.2017 05:00:00 -7,2 -7,9 14 8 29 16 SE
11.12.2017 04:00:00 -7,3 -8,0 15 8 24 13 SSE
11.12.2017 03:00:00 -7,4 -8,1 14 8 20 11 SE
11.12.2017 02:00:00 -7,6 -8,4 14 7 19 10 ESE
11.12.2017 01:00:00 -7,5 -8,2 14 8 21 12 ESE
11.12.2017 00:00:00 -7,6 -8,3 17 9 26 14 SSE
10.12.2017 23:00:00 -7,5 -8,3 18 10 24 13 SSE
10.12.2017 22:00:00 -7,7 -8,5 19 10 27 15 S
10.12.2017 21:00:00 -8,8 -9,6 17 9 32 18 SE
10.12.2017 20:00:00 -8,5 -9,3 17 9 29 15 SSE
10.12.2017 19:00:00 - - - - - - -
10.12.2017 18:00:00 -9,7 -10,6 21 11 30 16 ESE
10.12.2017 17:00:00 -9,5 -10,4 19 10 27 14 SE
10.12.2017 16:00:00 -9,1 -10,0 18 10 23 13 ESE
10.12.2017 15:00:00 -9,4 -10,3 21 11 29 16 ESE
10.12.2017 14:00:00 -9,8 -10,7 25 14 32 17 ESE
10.12.2017 13:00:00 -9,3 -10,2 16 9 21 11 ESE
10.12.2017 12:00:00 -9,1 -10,0 12 7 18 10 ESE
10.12.2017 11:00:00 -8,8 -9,6 14 7 18 10 ESE
10.12.2017 10:00:00 -8,5 -9,3 13 7 17 9 SE
10.12.2017 09:00:00 -7,8 -8,9 10 6 21 12 SE
10.12.2017 08:00:00 -8,3 -9,1 12 7 25 14 SE
10.12.2017 07:00:00 -8,1 -9,3 11 6 15 8 SSE
10.12.2017 06:00:00 -8,2 -9,1 9 5 18 10 SSE
10.12.2017 05:00:00 -7,5 -8,3 5 3 22 12 SSE
10.12.2017 04:00:00 -7,1 -8,0 3 2 36 19 NW
10.12.2017 03:00:00 -6,8 -7,7 5 3 13 7 WNW
10.12.2017 02:00:00 -6,7 -7,5 7 4 12 7 NW
10.12.2017 01:00:00 -6,7 -7,5 11 6 29 16 NNW
10.12.2017 00:00:00 -7,1 -7,8 12 7 18 10 NNW
09.12.2017 23:00:00 -6,3 -7,0 12 6 19 11 WNW
09.12.2017 22:00:00 -6,1 -6,6 16 8 21 12 WNW
09.12.2017 21:00:00 -6,3 -6,8 13 7 18 10 W
09.12.2017 20:00:00 -5,6 -6,1 10 5 16 9 NW
09.12.2017 19:00:00 -5,3 -5,7 13 7 17 9 WNW
09.12.2017 18:00:00 -5,0 -5,4 14 8 22 12 NW

tt = Température de l'air
td = dewpoint
ff = Vitesse du vent
fx = gusts
dd = Direction du vent

stations d'obs. à proximité